Ashland, Illinois
Current Conditions -  °F | °C
As of 10:55 PM on Thursday 30 Oct 2014 (Local Time) from KIJX Reporting Station
Broken Clouds Broken Clouds  
Wind Chill: 46°   Ceiling: 12000
Heat Index: 46°   Visibility: 10mi
Dew Point: 43°   Wind: 3mph
Humidity: 90%   Direction: 360°N
Pressure: 30.07"   Gusts: NA
Location:  39.89°N, 90.01°W
Report Text: KIJX 310355Z AUTO 36003KT 10SM BKN120 08/06 A3007 RMK AO2 T00750060
Loading
Personal Weather Stations






























Interactive Weather Map New forecast layout! Learn more

10-Day Weather Forecast

Advertisements
Track Severe Weather on mobile